Crescent City, Illinois
Current Conditions -  °F | °C
As of 7:35 AM on Saturday 25 Oct 2014 (Local Time) from KIKK Reporting Station
Moderate Fog Moderate Fog  
Wind Chill: 55°   Ceiling: 200
Heat Index: 55°   Visibility: 0.25mi
Dew Point: 54°   Wind: 7mph
Humidity: 98%   Direction: 280°W
Pressure: 29.95"   Gusts: NA
Location:  40.77°N, 87.86°W
Report Text: KIKK 251235Z AUTO 28006KT 1/4SM FG OVC002 13/12 A2995 RMK AO2 T01250122
Loading
Personal Weather Stations






























Interactive Weather Map
Tropical Storm Tracking
New forecast layout! Learn more

10-Day Weather Forecast

Advertisements
Track Severe Weather on mobile